Time;durP1;ratioP1;P1;durP2;ratioP2;P2;SDS_P1;SDS_P2;PMS_P1;PMS_P2;Temp;Humidity;BMP_temperature;BMP_pressure;BME280_temperature;BME280_humidity;BME280_pressure;Samples;Min_cycle;Max_cycle;Signal;HPM_P1;HPM_P2
2023/05/21 00:01:44;;;;;;;6.85;4.70;;;;;;;22.48;41.95;99951.00;5026702;28;20553;-68
2023/05/21 00:04:11;;;;;;;6.35;5.20;;;;;;;22.55;41.82;99951.78;5017065;28;20049;-68
2023/05/21 00:06:37;;;;;;;6.95;4.90;;;;;;;22.58;41.37;99952.16;5017525;28;20134;-68
2023/05/21 00:09:05;;;;;;;6.32;4.47;;;;;;;22.67;41.60;99952.66;5001109;28;20146;-69
2023/05/21 00:11:31;;;;;;;5.57;4.78;;;;;;;22.68;41.80;99947.00;4984799;28;20368;-68
2023/05/21 00:13:58;;;;;;;7.43;4.32;;;;;;;22.60;41.90;99933.78;5000480;28;20049;-68
2023/05/21 00:16:24;;;;;;;9.45;4.68;;;;;;;22.75;41.59;99930.69;5007030;28;20069;-68
2023/05/21 00:18:53;;;;;;;8.98;5.00;;;;;;;22.68;41.26;99935.38;4997168;28;20480;-69
2023/05/21 00:21:21;;;;;;;5.57;4.13;;;;;;;22.73;41.15;99936.31;4979137;28;20045;-67
2023/05/21 00:23:48;;;;;;;6.15;4.57;;;;;;;22.77;41.32;99932.09;5014861;28;20045;-68
2023/05/21 00:26:16;;;;;;;7.25;4.10;;;;;;;22.69;41.10;99934.31;5000689;28;20053;-68
2023/05/21 00:28:42;;;;;;;7.82;4.22;;;;;;;22.64;41.13;99926.88;5002343;28;20054;-68
2023/05/21 00:31:09;;;;;;;8.05;5.22;;;;;;;22.72;41.21;99931.97;4986052;28;20100;-67
2023/05/21 00:33:34;;;;;;;7.90;5.10;;;;;;;22.77;41.11;99929.38;5002909;28;20084;-68
2023/05/21 00:36:00;;;;;;;5.55;4.00;;;;;;;22.76;40.79;99927.75;5002067;28;20530;-68
2023/05/21 00:38:26;;;;;;;5.40;4.50;;;;;;;22.85;41.08;99926.34;4986005;28;20041;-69
2023/05/21 00:40:52;;;;;;;7.72;4.53;;;;;;;22.83;41.29;99925.75;5002105;28;20045;-68
2023/05/21 00:43:19;;;;;;;10.45;5.10;;;;;;;22.85;41.16;99922.81;4985897;28;20045;-69
2023/05/21 00:45:47;;;;;;;8.35;4.63;;;;;;;22.85;40.99;99933.66;5018381;28;20045;-68
2023/05/21 00:48:13;;;;;;;5.63;4.65;;;;;;;22.95;40.91;99925.81;4985725;28;20041;-69
2023/05/21 00:50:40;;;;;;;6.47;4.50;;;;;;;23.07;40.98;99932.09;4985665;28;20049;-69
2023/05/21 00:53:10;;;;;;;8.30;4.85;;;;;;;23.00;40.76;99928.66;5002150;28;20106;-69
2023/05/21 00:55:36;;;;;;;6.80;4.80;;;;;;;23.06;40.60;99931.25;5002494;28;20590;-68
2023/05/21 00:58:03;;;;;;;7.18;5.18;;;;;;;22.76;41.56;99922.31;5018245;28;20143;-68
2023/05/21 01:00:33;;;;;;;7.68;4.82;;;;;;;23.18;41.16;99926.72;5001683;28;20038;-68
2023/05/21 01:03:00;;;;;;;7.53;4.72;;;;;;;22.90;40.90;99929.22;5001703;28;20049;-68
2023/05/21 01:05:28;;;;;;;6.45;5.38;;;;;;;22.93;41.21;99931.47;5018170;28;20532;-69
2023/05/21 01:07:54;;;;;;;7.63;5.43;;;;;;;22.96;41.01;99931.00;4985161;28;20904;-69
2023/05/21 01:10:21;;;;;;;6.68;4.95;;;;;;;22.96;41.12;99938.28;4985434;28;20055;-69
2023/05/21 01:12:48;;;;;;;7.97;5.10;;;;;;;23.11;41.51;99934.09;5000393;28;20123;-68
2023/05/21 01:15:16;;;;;;;7.22;4.85;;;;;;;22.93;41.80;99934.16;4968149;28;20060;-69
2023/05/21 01:17:44;;;;;;;8.98;5.82;;;;;;;22.83;42.29;99931.16;4977308;28;20061;-68
2023/05/21 01:20:11;;;;;;;7.75;5.63;;;;;;;22.91;42.47;99933.56;4961357;28;20050;-69
2023/05/21 01:22:42;;;;;;;11.07;5.47;;;;;;;23.09;42.88;99935.41;4961610;28;20511;-68
2023/05/21 01:25:09;;;;;;;6.43;5.72;;;;;;;22.73;43.09;99930.91;4961686;28;20046;-68
2023/05/21 01:27:38;;;;;;;8.15;5.75;;;;;;;22.64;42.91;99923.31;4961517;28;20050;-67
2023/05/21 01:30:04;;;;;;;8.13;5.65;;;;;;;22.76;43.21;99929.63;4961206;28;20496;-67
2023/05/21 01:32:42;;;;;;;6.85;5.50;;;;;;;23.02;42.81;99930.06;4993539;28;20113;-68
2023/05/21 01:35:35;;;;;;;10.32;5.85;;;;;;;23.05;42.68;99936.91;4993749;28;20050;-68
2023/05/21 01:38:21;;;;;;;8.02;6.30;;;;;;;23.03;42.94;99925.47;4930012;28;20193;-68
2023/05/21 01:40:51;;;;;;;8.18;6.20;;;;;;;22.47;43.32;99936.63;4977321;28;20042;-68
2023/05/21 01:43:18;;;;;;;11.63;6.95;;;;;;;22.59;43.35;99931.28;4967107;28;20057;-69
2023/05/21 01:45:45;;;;;;;8.48;6.40;;;;;;;22.62;43.58;99915.44;4948130;28;20120;-68
2023/05/21 01:48:11;;;;;;;8.20;6.43;;;;;;;22.62;43.79;99928.13;4964144;28;20095;-68
2023/05/21 01:50:40;;;;;;;9.80;7.03;;;;;;;22.76;43.36;99916.91;4964455;28;20052;-68
2023/05/21 01:53:07;;;;;;;12.57;6.50;;;;;;;22.41;43.56;99924.00;4948336;28;20104;-69
2023/05/21 01:55:38;;;;;;;10.80;6.25;;;;;;;22.61;43.84;99932.75;4948159;28;20601;-69
2023/05/21 01:58:04;;;;;;;9.75;6.97;;;;;;;22.35;44.09;99926.78;4948725;28;20472;-69
2023/05/21 02:00:31;;;;;;;10.70;6.78;;;;;;;22.38;44.16;99926.34;4949547;28;20116;-68
2023/05/21 02:02:57;;;;;;;7.93;6.80;;;;;;;22.39;44.03;99926.13;5017138;28;20049;-67
2023/05/21 02:05:23;;;;;;;10.68;7.88;;;;;;;22.41;43.96;99931.28;4984278;28;20056;-68
2023/05/21 02:07:50;;;;;;;10.93;6.85;;;;;;;22.47;43.65;99930.38;4984172;28;20041;-67
2023/05/21 02:10:16;;;;;;;11.93;8.13;;;;;;;22.42;43.47;99933.78;4983027;28;20093;-68
2023/05/21 02:12:42;;;;;;;9.85;7.38;;;;;;;22.54;43.56;99929.28;4983052;28;20152;-69
2023/05/21 02:15:09;;;;;;;11.38;8.32;;;;;;;22.45;43.80;99919.78;4983495;28;20049;-69
2023/05/21 02:17:37;;;;;;;16.50;9.43;;;;;;;22.52;43.64;99922.44;5014660;28;20053;-69
2023/05/21 02:20:14;;;;;;;33.03;13.73;;;;;;;22.53;43.74;99921.38;4999192;28;20069;-69
2023/05/21 02:22:42;;;;;;;38.13;13.55;;;;;;;22.58;43.79;99926.94;4983264;28;20107;-69
2023/05/21 02:25:11;;;;;;;40.75;14.98;;;;;;;22.67;43.89;99918.28;4999433;28;20103;-69
2023/05/21 02:27:39;;;;;;;36.38;13.73;;;;;;;22.50;44.13;99919.09;4999264;28;20116;-68
2023/05/21 02:30:07;;;;;;;46.78;15.30;;;;;;;22.55;44.07;99914.72;4982943;28;20045;-68
2023/05/21 02:32:33;;;;;;;46.42;16.05;;;;;;;22.55;43.63;99922.81;4982753;28;20111;-68
2023/05/21 02:35:02;;;;;;;46.15;15.73;;;;;;;22.57;44.33;99917.19;4982715;28;20053;-69
2023/05/21 02:37:34;;;;;;;51.38;17.15;;;;;;;22.44;43.96;99931.69;4976590;28;20050;-69
2023/05/21 02:40:02;;;;;;;47.30;15.73;;;;;;;22.55;44.32;99928.25;4976479;28;20092;-68
2023/05/21 02:42:32;;;;;;;53.17;19.10;;;;;;;22.54;43.66;99920.34;4961148;28;20393;-69
2023/05/21 02:44:58;;;;;;;59.30;18.75;;;;;;;22.50;43.75;99925.34;4943877;28;20042;-69
2023/05/21 02:47:24;;;;;;;55.72;17.58;;;;;;;22.51;43.80;99927.03;4951400;28;20054;-69
2023/05/21 02:49:51;;;;;;;42.47;15.70;;;;;;;22.57;43.66;99928.00;4946830;28;20495;-68
2023/05/21 02:52:18;;;;;;;36.17;15.52;;;;;;;22.74;43.54;99934.44;4947058;28;20054;-66
2023/05/21 02:54:44;;;;;;;33.40;14.88;;;;;;;22.40;44.21;99932.38;4963137;28;20061;-68
2023/05/21 02:57:11;;;;;;;19.08;10.45;;;;;;;22.17;44.24;99930.31;4979446;28;20058;-67
2023/05/21 02:59:37;;;;;;;15.00;10.82;;;;;;;22.22;44.21;99938.59;4962944;28;20401;-68
2023/05/21 03:02:03;;;;;;;15.88;10.38;;;;;;;22.21;43.95;99933.41;4962737;28;20104;-68
2023/05/21 03:04:37;;;;;;;12.07;10.10;;;;;;;22.28;43.98;99921.44;4963532;28;20081;-67
2023/05/21 03:07:04;;;;;;;17.83;10.75;;;;;;;22.35;44.29;99924.94;4947257;28;20050;-66
2023/05/21 03:09:31;;;;;;;15.75;10.48;;;;;;;22.16;44.19;99931.38;5012423;28;20053;-66
2023/05/21 03:11:57;;;;;;;19.15;11.48;;;;;;;22.25;44.21;99927.31;4999158;28;20072;-66
2023/05/21 03:14:23;;;;;;;16.13;10.52;;;;;;;22.38;43.77;99931.75;4982974;28;20447;-67
2023/05/21 03:16:51;;;;;;;13.60;10.05;;;;;;;22.37;44.15;99932.81;5012095;28;20048;-68
2023/05/21 03:19:17;;;;;;;16.92;10.30;;;;;;;22.44;43.67;99936.25;5002970;28;20106;-67
2023/05/21 03:21:44;;;;;;;16.45;11.45;;;;;;;22.37;44.12;99924.69;5003069;28;20043;-68
2023/05/21 03:24:12;;;;;;;17.95;12.57;;;;;;;22.10;44.08;99934.16;5002477;28;20049;-68
2023/05/21 03:26:38;;;;;;;17.30;11.70;;;;;;;21.61;46.13;99935.88;5018795;28;20048;-67
2023/05/21 03:29:04;;;;;;;16.70;12.23;;;;;;;21.93;45.29;99931.22;5018483;28;20483;-71
2023/05/21 03:31:39;;;;;;;17.60;11.63;;;;;;;22.08;45.21;99934.38;4966878;28;20141;-68
2023/05/21 03:34:19;;;;;;;18.73;12.00;;;;;;;22.16;44.60;99936.78;4980824;28;20046;-68
2023/05/21 03:36:46;;;;;;;15.80;11.55;;;;;;;22.25;44.93;99938.16;4946672;28;20065;-67
2023/05/21 03:39:12;;;;;;;16.55;11.75;;;;;;;22.21;44.67;99942.38;4962639;28;20117;-67
2023/05/21 03:41:39;;;;;;;16.65;11.35;;;;;;;22.32;44.75;99938.06;4962208;28;20049;-66
2023/05/21 03:44:23;;;;;;;18.05;12.10;;;;;;;22.29;44.75;99941.22;4980662;28;20050;-69
2023/05/21 03:46:57;;;;;;;20.38;12.43;;;;;;;22.51;44.83;99939.75;4979106;28;20492;-69
2023/05/21 03:49:30;;;;;;;15.65;11.20;;;;;;;22.27;44.95;99935.22;4978984;28;20045;-68
2023/05/21 03:51:57;;;;;;;16.60;11.82;;;;;;;22.08;44.67;99941.69;4946224;28;20132;-66
2023/05/21 03:54:25;;;;;;;20.30;12.50;;;;;;;22.16;45.57;99944.91;4961950;28;20484;-67
2023/05/21 03:56:54;;;;;;;21.00;12.77;;;;;;;22.08;45.21;99939.78;4962339;28;20064;-66
2023/05/21 03:59:22;;;;;;;21.48;12.18;;;;;;;21.67;46.07;99934.16;4962083;28;20189;-67
2023/05/21 04:01:48;;;;;;;19.00;13.05;;;;;;;21.91;45.81;99944.13;4969999;28;20048;-67
2023/05/21 04:04:16;;;;;;;17.83;12.77;;;;;;;21.94;45.62;99943.69;5018622;28;20040;-67
2023/05/21 04:06:42;;;;;;;18.45;12.25;;;;;;;21.98;45.38;99938.66;5017933;28;20049;-67
2023/05/21 04:09:09;;;;;;;19.65;12.98;;;;;;;22.03;45.73;99934.25;5017948;28;20094;-67
2023/05/21 04:11:36;;;;;;;16.70;12.13;;;;;;;22.11;45.21;99938.53;4981058;28;20409;-68
2023/05/21 04:14:03;;;;;;;16.35;12.27;;;;;;;22.23;45.49;99939.44;4980845;28;20053;-67
2023/05/21 04:16:29;;;;;;;18.42;12.32;;;;;;;22.31;44.81;99936.44;4980544;28;20061;-67
2023/05/21 04:18:56;;;;;;;20.27;12.55;;;;;;;22.35;44.85;99932.22;4980878;28;20041;-67
2023/05/21 04:21:25;;;;;;;16.45;11.45;;;;;;;22.18;44.96;99936.56;5013384;28;20122;-67
2023/05/21 04:23:52;;;;;;;15.48;11.55;;;;;;;22.24;45.06;99938.38;4996945;28;20049;-68
2023/05/21 04:26:32;;;;;;;16.80;11.43;;;;;;;22.30;44.81;99934.75;4998623;28;20140;-67
2023/05/21 04:29:02;;;;;;;16.25;11.80;;;;;;;22.34;44.71;99931.38;4965254;28;20498;-67
2023/05/21 04:31:31;;;;;;;17.80;11.77;;;;;;;22.46;44.71;99936.88;4965528;28;20088;-68
2023/05/21 04:33:58;;;;;;;18.27;12.23;;;;;;;21.79;46.40;99932.41;4980688;28;20608;-67
2023/05/21 04:36:24;;;;;;;17.77;11.95;;;;;;;21.91;46.06;99930.59;4980920;28;20057;-67
2023/05/21 04:38:50;;;;;;;17.55;11.73;;;;;;;22.07;45.78;99940.84;4996834;28;20045;-70
2023/05/21 04:41:18;;;;;;;18.05;11.48;;;;;;;22.23;45.52;99931.31;4981000;28;20061;-68
2023/05/21 04:43:43;;;;;;;19.15;11.63;;;;;;;22.23;45.25;99934.84;5001048;28;20487;-67
2023/05/21 04:46:11;;;;;;;17.33;10.95;;;;;;;22.33;44.92;99935.13;5001764;28;20078;-67
2023/05/21 04:48:37;;;;;;;16.27;11.32;;;;;;;22.30;44.78;99935.59;5001155;28;20502;-67
2023/05/21 04:51:04;;;;;;;17.27;11.18;;;;;;;22.21;45.34;99936.13;5017463;28;20033;-66
2023/05/21 04:53:32;;;;;;;15.52;11.07;;;;;;;22.23;45.56;99942.13;5050543;28;20040;-65
2023/05/21 04:56:00;;;;;;;17.98;12.60;;;;;;;21.88;46.53;99941.88;5001339;28;20045;-66
2023/05/21 04:58:26;;;;;;;19.25;12.38;;;;;;;21.93;46.87;99933.94;5017499;28;20052;-66
2023/05/21 05:00:53;;;;;;;17.67;12.43;;;;;;;21.90;46.82;99926.25;5001271;28;20069;-66
2023/05/21 05:03:19;;;;;;;22.02;12.43;;;;;;;21.88;46.87;99941.88;5034169;28;20475;-66
2023/05/21 05:05:46;;;;;;;20.75;11.93;;;;;;;22.22;46.03;99933.19;5000856;28;20041;-66
2023/05/21 05:08:12;;;;;;;17.10;11.70;;;;;;;22.52;45.09;99939.53;5000875;28;20051;-66
2023/05/21 05:10:37;;;;;;;19.98;10.93;;;;;;;22.73;44.30;99936.31;5000862;28;20139;-67
2023/05/21 05:13:03;;;;;;;14.80;10.82;;;;;;;22.73;44.05;99946.31;4996700;28;20100;-66
2023/05/21 05:15:29;;;;;;;13.88;11.30;;;;;;;22.81;43.30;99946.00;4982597;28;20484;-67
2023/05/21 05:17:56;;;;;;;17.63;10.98;;;;;;;22.92;42.97;99937.94;4942060;28;20405;-67
2023/05/21 05:20:22;;;;;;;14.02;10.13;;;;;;;23.03;42.68;99942.53;4942228;28;20070;-68
2023/05/21 05:22:50;;;;;;;13.60;10.18;;;;;;;23.24;42.26;99952.03;4942371;28;20100;-67
2023/05/21 05:25:16;;;;;;;12.25;9.63;;;;;;;23.32;42.55;99945.50;4941814;28;20392;-65
2023/05/21 05:27:42;;;;;;;12.88;10.05;;;;;;;23.23;42.12;99945.78;4957886;28;20043;-68
2023/05/21 05:30:08;;;;;;;11.52;9.63;;;;;;;23.29;41.85;99957.63;4941867;28;20082;-69
2023/05/21 05:32:35;;;;;;;13.75;10.65;;;;;;;23.21;42.05;99953.34;4941992;28;20053;-68
2023/05/21 05:35:02;;;;;;;16.23;10.27;;;;;;;23.40;42.41;99959.56;4941644;28;20042;-68
2023/05/21 05:37:32;;;;;;;15.23;10.90;;;;;;;22.75;43.78;99950.47;4942209;28;20054;-68
2023/05/21 05:39:58;;;;;;;15.50;11.27;;;;;;;22.53;43.80;99945.75;4941566;28;20053;-69
2023/05/21 05:42:26;;;;;;;14.32;10.30;;;;;;;22.83;43.37;99958.25;4941640;28;20082;-69
2023/05/21 05:44:52;;;;;;;18.55;10.30;;;;;;;23.09;43.14;99957.06;4942047;28;20109;-69
2023/05/21 05:47:20;;;;;;;17.02;11.20;;;;;;;22.75;43.75;99965.88;4958042;28;20089;-69
2023/05/21 05:49:46;;;;;;;15.65;10.88;;;;;;;22.77;43.21;99961.88;4949372;28;20057;-69
2023/05/21 05:52:13;;;;;;;15.88;12.38;;;;;;;22.55;43.51;99960.72;4979968;28;20145;-68
2023/05/21 05:54:39;;;;;;;17.25;12.02;;;;;;;22.74;42.83;99962.34;4958440;28;20467;-68
2023/05/21 05:57:05;;;;;;;14.75;11.85;;;;;;;22.98;42.36;99963.28;5020119;28;20048;-68
2023/05/21 05:59:32;;;;;;;20.45;12.75;;;;;;;22.81;41.98;99973.94;5015826;28;20049;-68
2023/05/21 06:02:00;;;;;;;19.38;13.38;;;;;;;22.94;42.21;99959.38;4983801;28;20053;-68
2023/05/21 06:04:28;;;;;;;18.67;13.00;;;;;;;23.10;41.56;99966.84;4983514;28;20080;-68
2023/05/21 06:06:58;;;;;;;21.38;12.32;;;;;;;23.65;40.48;99964.78;5000186;28;20476;-66
2023/05/21 06:09:25;;;;;;;17.65;13.25;;;;;;;23.53;40.00;99970.16;4995719;28;20054;-67
2023/05/21 06:11:51;;;;;;;15.40;11.50;;;;;;;24.16;38.88;99959.47;4979485;28;20085;-66
2023/05/21 06:14:17;;;;;;;16.70;12.20;;;;;;;24.59;37.99;99968.84;4977840;28;20054;-67
2023/05/21 06:16:43;;;;;;;16.20;12.07;;;;;;;24.49;37.38;99971.31;4976120;28;20054;-67
2023/05/21 06:19:09;;;;;;;17.08;11.95;;;;;;;24.23;37.90;99980.00;4975949;28;20220;-67
2023/05/21 06:21:35;;;;;;;18.48;11.57;;;;;;;24.34;37.23;99967.50;4975988;28;20057;-67
2023/05/21 06:24:02;;;;;;;16.55;11.93;;;;;;;23.88;37.80;99968.31;4976300;28;20526;-67
2023/05/21 06:26:29;;;;;;;16.60;11.38;;;;;;;23.98;37.70;99962.31;4976986;28;20057;-67
2023/05/21 06:28:56;;;;;;;14.90;11.60;;;;;;;23.68;38.76;99961.59;4977172;28;20045;-67
2023/05/21 06:31:23;;;;;;;13.95;11.00;;;;;;;24.51;37.16;99976.53;4966057;28;20054;-67
2023/05/21 06:33:49;;;;;;;15.05;10.13;;;;;;;24.70;36.14;99978.88;4979340;28;20053;-67
2023/05/21 06:36:16;;;;;;;14.05;9.75;;;;;;;25.23;35.28;99975.00;4995612;28;20038;-67
2023/05/21 06:38:42;;;;;;;14.40;10.57;;;;;;;25.82;34.46;99977.94;4963273;28;20076;-67
2023/05/21 06:41:08;;;;;;;14.52;10.05;;;;;;;26.31;33.37;99982.50;4963238;28;20472;-67
2023/05/21 06:43:46;;;;;;;13.30;8.95;;;;;;;26.69;32.72;99989.84;4964800;28;20081;-67
2023/05/21 06:46:31;;;;;;;11.95;9.63;;;;;;;26.62;32.20;99986.44;5013442;28;20566;-67
2023/05/21 06:48:59;;;;;;;11.73;9.23;;;;;;;26.78;32.07;99984.78;5019334;28;20095;-67
2023/05/21 06:51:26;;;;;;;16.15;10.10;;;;;;;26.48;32.07;99984.38;5020000;28;20167;-67
2023/05/21 06:53:52;;;;;;;11.45;9.23;;;;;;;26.57;32.19;99991.03;5019444;28;20131;-67
2023/05/21 06:56:18;;;;;;;13.93;9.52;;;;;;;25.83;33.35;99982.28;5019139;28;20194;-67
2023/05/21 06:58:45;;;;;;;15.02;10.40;;;;;;;25.64;33.90;99983.63;5019356;28;20391;-67
2023/05/21 07:01:11;;;;;;;12.10;9.48;;;;;;;25.95;33.32;99993.09;5018873;28;20051;-67
2023/05/21 07:03:37;;;;;;;14.80;9.93;;;;;;;25.71;33.28;99995.16;5002716;28;20036;-67
2023/05/21 07:06:03;;;;;;;15.27;10.35;;;;;;;25.73;33.11;99994.91;5018714;28;20044;-67
2023/05/21 07:08:30;;;;;;;12.85;10.15;;;;;;;25.74;33.48;99996.59;5018714;28;20052;-68
2023/05/21 07:10:58;;;;;;;14.85;10.18;;;;;;;25.83;33.01;99995.09;5019241;28;20473;-67
2023/05/21 07:13:26;;;;;;;16.25;10.45;;;;;;;24.99;34.08;99984.34;5002920;28;20037;-67
2023/05/21 07:15:53;;;;;;;18.42;11.10;;;;;;;24.16;35.63;99975.75;5018343;28;20056;-67
2023/05/21 07:18:20;;;;;;;16.63;11.02;;;;;;;24.54;34.78;99981.50;5002568;28;20515;-67
2023/05/21 07:20:45;;;;;;;16.40;11.13;;;;;;;24.71;35.00;99982.41;5018731;28;20048;-67
2023/05/21 07:23:15;;;;;;;18.15;11.02;;;;;;;25.20;34.09;99984.44;5003087;28;20040;-67
2023/05/21 07:25:43;;;;;;;15.70;11.15;;;;;;;25.58;34.20;99991.94;5035173;28;20135;-67
2023/05/21 07:28:09;;;;;;;12.85;10.23;;;;;;;26.09;32.07;99989.81;4997674;28;20065;-67
2023/05/21 07:30:36;;;;;;;17.02;10.18;;;;;;;25.79;32.29;99983.03;4997889;28;20049;-67
2023/05/21 07:33:05;;;;;;;13.85;9.30;;;;;;;25.52;32.74;99987.50;4997923;28;20084;-67
2023/05/21 07:35:31;;;;;;;13.98;9.90;;;;;;;25.60;32.29;99978.94;4997246;28;20096;-67
2023/05/21 07:37:57;;;;;;;14.30;9.05;;;;;;;26.59;31.52;99978.78;4981742;28;20057;-67
2023/05/21 07:40:23;;;;;;;13.85;8.98;;;;;;;27.48;29.69;99972.72;4965593;28;20107;-67
2023/05/21 07:42:50;;;;;;;13.20;9.60;;;;;;;28.50;28.65;99978.66;4997772;28;20581;-67
2023/05/21 07:45:21;;;;;;;12.50;9.23;;;;;;;29.22;27.25;99976.75;4980782;28;20093;-67
2023/05/21 07:47:48;;;;;;;12.68;9.10;;;;;;;29.68;26.52;99979.56;4941237;28;20433;-67
2023/05/21 07:50:14;;;;;;;13.27;8.90;;;;;;;29.81;25.92;99984.47;4957129;28;20042;-67
2023/05/21 07:52:41;;;;;;;13.70;8.15;;;;;;;29.38;25.88;99986.59;4957567;28;20634;-67
2023/05/21 07:55:09;;;;;;;9.45;8.07;;;;;;;28.49;27.32;99974.31;4958023;28;20150;-67
2023/05/21 07:57:36;;;;;;;10.10;7.80;;;;;;;28.11;27.42;99971.84;4956135;28;20516;-67
2023/05/21 08:00:09;;;;;;;;;;;;;;;28.14;26.76;99979.53;4965706;28;20053;-67
2023/05/21 08:02:45;;;;;;;9.35;7.75;;;;;;;29.96;25.36;99996.25;4992186;28;20813;-67
2023/05/21 08:05:15;;;;;;;12.32;7.75;;;;;;;30.39;24.08;99992.06;4996366;28;20053;-67
2023/05/21 08:07:42;;;;;;;11.32;6.95;;;;;;;31.70;23.21;100001.28;4996775;28;20101;-67
2023/05/21 08:10:08;;;;;;;10.55;7.68;;;;;;;31.74;22.18;99991.34;4961287;28;20080;-67
2023/05/21 08:12:34;;;;;;;8.60;7.47;;;;;;;32.05;22.48;99980.94;4939063;28;20481;-67
2023/05/21 08:15:01;;;;;;;9.38;6.60;;;;;;;32.33;21.84;99988.34;4954983;28;20163;-68
2023/05/21 08:17:30;;;;;;;11.70;6.00;;;;;;;32.52;21.09;99984.56;4920708;29;20106;-69
2023/05/21 08:19:57;;;;;;;10.93;6.82;;;;;;;32.59;20.79;99981.47;4874174;29;20051;-68
2023/05/21 08:22:23;;;;;;;10.77;6.10;;;;;;;31.91;21.04;99988.22;4920242;29;20051;-68
2023/05/21 08:24:49;;;;;;;11.23;6.10;;;;;;;30.60;22.79;99988.97;4940110;28;20467;-68
2023/05/21 08:27:15;;;;;;;10.98;6.00;;;;;;;30.03;23.65;99985.00;4977809;28;20053;-68
2023/05/21 08:29:42;;;;;;;9.38;5.95;;;;;;;28.93;24.83;99967.34;4977891;28;20046;-68
2023/05/21 08:32:09;;;;;;;5.93;5.30;;;;;;;27.80;25.43;99975.44;4978382;28;20507;-67
2023/05/21 08:34:36;;;;;;;7.25;4.88;;;;;;;27.72;26.02;99974.00;4977840;28;20440;-67
2023/05/21 08:37:31;;;;;;;8.15;4.88;;;;;;;27.72;26.41;99973.19;4946268;28;20042;-68
2023/05/21 08:40:08;;;;;;;7.45;4.53;;;;;;;27.54;26.16;99973.56;4977669;28;20206;-68
2023/05/21 08:42:43;;;;;;;5.88;4.65;;;;;;;27.34;26.48;99973.41;4996001;28;20045;-67
2023/05/21 08:45:13;;;;;;;10.68;5.18;;;;;;;26.36;28.05;99968.97;5000988;28;20040;-68
2023/05/21 08:47:43;;;;;;;6.82;4.50;;;;;;;26.37;27.76;99986.94;5019102;28;20040;-67
2023/05/21 08:50:12;;;;;;;7.10;4.40;;;;;;;25.93;28.60;99979.75;5012491;28;20483;-68
2023/05/21 08:52:38;;;;;;;8.57;4.80;;;;;;;25.55;29.20;99981.56;5011906;28;20052;-67
2023/05/21 08:55:04;;;;;;;7.63;4.38;;;;;;;25.40;29.54;99973.16;5004476;28;20146;-67
2023/05/21 08:57:32;;;;;;;9.93;4.72;;;;;;;25.72;29.23;99977.78;5005428;28;20068;-67
2023/05/21 09:00:03;;;;;;;8.45;4.20;;;;;;;26.15;28.69;99983.38;5037656;28;20049;-67
2023/05/21 09:02:33;;;;;;;4.72;3.63;;;;;;;25.57;29.49;99985.69;5022026;28;20140;-67
2023/05/21 09:05:02;;;;;;;7.43;3.92;;;;;;;25.42;29.78;99979.97;5037737;28;20047;-67
2023/05/21 09:07:38;;;;;;;8.13;4.28;;;;;;;25.86;29.41;99972.81;5038187;28;20044;-67
2023/05/21 09:10:22;;;;;;;11.48;3.97;;;;;;;25.99;29.45;99981.50;5024573;28;20106;-66
2023/05/21 09:12:49;;;;;;;5.53;4.50;;;;;;;25.51;30.12;99983.94;4997903;28;20052;-67
2023/05/21 09:15:17;;;;;;;4.85;4.35;;;;;;;25.48;30.20;99983.63;5000838;28;20045;-67
2023/05/21 09:17:48;;;;;;;7.03;4.43;;;;;;;25.73;30.40;99995.75;5060924;28;20052;-67
2023/05/21 09:20:32;;;;;;;8.82;5.20;;;;;;;25.09;30.93;99992.66;5049276;28;20036;-67
2023/05/21 09:23:11;;;;;;;9.50;5.25;;;;;;;25.71;30.70;99992.44;5044819;28;20082;-67
2023/05/21 09:25:37;;;;;;;8.55;5.15;;;;;;;25.73;30.63;99994.91;5028394;28;20130;-67
2023/05/21 09:28:17;;;;;;;7.13;4.95;;;;;;;25.75;30.83;99998.22;5029283;28;20047;-67
2023/05/21 09:30:44;;;;;;;9.57;5.65;;;;;;;25.64;31.22;100002.69;5044059;28;20043;-67
2023/05/21 09:33:10;;;;;;;9.13;5.00;;;;;;;25.56;30.74;100000.38;5027451;28;20066;-68
2023/05/21 09:35:47;;;;;;;7.72;5.30;;;;;;;25.96;30.22;100003.75;5027959;28;20141;-67
2023/05/21 09:38:15;;;;;;;8.77;5.25;;;;;;;25.82;30.88;100007.03;5019396;28;20219;-67
2023/05/21 09:40:46;;;;;;;10.77;4.38;;;;;;;25.67;30.73;100010.34;5015369;28;20049;-67
2023/05/21 09:43:17;;;;;;;11.25;4.63;;;;;;;25.40;30.97;100006.59;4982416;28;20064;-67
2023/05/21 09:46:01;;;;;;;6.05;5.20;;;;;;;25.13;31.39;100010.13;4981413;28;20407;-67
2023/05/21 09:48:41;;;;;;;7.47;5.50;;;;;;;24.84;32.33;100006.59;4982090;28;20514;-67
2023/05/21 09:51:16;;;;;;;6.95;5.40;;;;;;;24.58;32.69;100012.53;4981966;28;20046;-67
2023/05/21 09:53:50;;;;;;;7.05;4.90;;;;;;;24.51;32.52;100011.81;4981169;28;20099;-66
2023/05/21 09:56:22;;;;;;;15.20;5.30;;;;;;;24.21;33.31;100005.72;4998191;28;20049;-66
2023/05/21 09:58:50;;;;;;;11.63;5.70;;;;;;;24.19;34.38;100005.13;4982666;28;20052;-67
2023/05/21 10:01:18;;;;;;;9.55;5.80;;;;;;;24.59;33.86;100015.00;4999569;28;20111;-66
2023/05/21 10:03:49;;;;;;;6.72;5.97;;;;;;;24.97;33.39;100003.56;4999978;28;20240;-67
2023/05/21 10:06:17;;;;;;;9.75;5.90;;;;;;;24.72;33.25;100024.81;4999794;28;20554;-67
2023/05/21 10:08:47;;;;;;;11.00;6.50;;;;;;;25.17;32.34;100012.13;5009471;28;20075;-67
2023/05/21 10:11:14;;;;;;;7.82;5.57;;;;;;;25.79;30.88;100016.53;5023557;28;20073;-67
2023/05/21 10:13:43;;;;;;;6.45;4.88;;;;;;;26.72;29.77;100011.16;5023422;28;20098;-67
2023/05/21 10:16:10;;;;;;;9.27;5.50;;;;;;;27.60;28.07;100018.97;5023158;28;20052;-67
2023/05/21 10:18:36;;;;;;;7.63;5.00;;;;;;;28.44;26.83;100015.22;5023658;28;20045;-67
2023/05/21 10:21:05;;;;;;;8.00;5.03;;;;;;;29.44;25.33;100021.13;5007398;28;20054;-67
2023/05/21 10:23:35;;;;;;;5.60;4.30;;;;;;;28.92;25.08;100017.66;5023984;28;20488;-67
2023/05/21 10:26:01;;;;;;;9.38;4.00;;;;;;;29.06;25.03;100012.56;5023131;28;20044;-67
2023/05/21 10:28:32;;;;;;;8.38;3.80;;;;;;;29.58;24.18;100026.88;5023256;28;20045;-67
2023/05/21 10:30:59;;;;;;;7.45;3.92;;;;;;;30.23;23.33;100015.16;5023332;28;20040;-67
2023/05/21 10:33:26;;;;;;;7.15;3.75;;;;;;;30.44;22.38;100041.41;5023302;28;20402;-68
2023/05/21 10:35:52;;;;;;;5.97;3.88;;;;;;;30.63;22.56;100020.53;5006745;28;20122;-67
2023/05/21 10:38:22;;;;;;;7.72;3.30;;;;;;;32.40;20.35;100039.16;5023011;28;20048;-67
2023/05/21 10:40:51;;;;;;;3.75;3.35;;;;;;;34.03;18.76;100029.22;5023271;28;20037;-68
2023/05/21 10:43:45;;;;;;;4.88;2.83;;;;;;;35.92;17.36;100028.28;5007654;28;20044;-68
2023/05/21 10:46:55;;;;;;;6.22;3.50;;;;;;;35.64;17.02;100021.25;5039336;28;20219;-68
2023/05/21 10:49:50;;;;;;;3.65;2.55;;;;;;;34.91;17.29;100023.44;4962888;28;20148;-68
2023/05/21 10:52:46;;;;;;;3.70;2.58;;;;;;;33.88;18.35;100004.66;4995508;28;20056;-68
2023/05/21 10:55:31;;;;;;;6.00;2.30;;;;;;;35.40;17.11;100016.00;4905694;28;20065;-68
2023/05/21 10:58:18;;;;;;;6.32;2.20;;;;;;;36.15;17.07;100015.28;4921424;29;20111;-68
2023/05/21 11:00:45;;;;;;;3.83;2.10;;;;;;;36.16;16.20;100011.38;4969212;28;20041;-68
2023/05/21 11:03:12;;;;;;;7.22;2.10;;;;;;;36.26;15.83;100013.88;4982392;28;20147;-68
2023/05/21 11:05:51;;;;;;;2.58;2.00;;;;;;;34.63;16.19;100010.78;4998842;28;20052;-68
2023/05/21 11:08:21;;;;;;;2.58;1.85;;;;;;;33.77;17.57;100014.22;4982232;28;20085;-68
2023/05/21 11:10:56;;;;;;;4.10;1.63;;;;;;;32.44;18.56;100001.69;4998365;28;20041;-68
2023/05/21 11:13:25;;;;;;;2.70;1.95;;;;;;;31.17;19.73;99990.38;4982382;28;20574;-67
2023/05/21 11:15:56;;;;;;;2.28;2.05;;;;;;;30.93;20.63;100009.44;4997122;28;20160;-68
2023/05/21 11:18:38;;;;;;;2.42;2.22;;;;;;;30.09;21.54;100001.13;4962740;28;20050;-67
2023/05/21 11:21:12;;;;;;;2.58;2.22;;;;;;;29.45;22.60;100000.84;4994924;28;20053;-67
2023/05/21 11:24:01;;;;;;;4.97;2.95;;;;;;;29.10;23.52;100003.53;4946917;28;20058;-67
2023/05/21 11:26:50;;;;;;;7.13;2.90;;;;;;;28.21;24.90;100003.88;4946793;28;20144;-67
2023/05/21 11:29:21;;;;;;;3.95;3.15;;;;;;;28.43;25.01;100010.03;4992127;28;20049;-68
2023/05/21 11:32:00;;;;;;;11.18;3.40;;;;;;;28.85;24.99;100003.41;5001152;28;20064;-67
2023/05/21 11:34:28;;;;;;;4.32;3.10;;;;;;;27.76;26.78;100009.81;5001044;28;20047;-67